Mendota, IL

10:22 PM CDT on August 27, 2014 (GMT -0500)
KILSUBLE2 | Change Station
CLOSE
Current Station
Personal Weather Station
Location: Sublette, IL
Elevation: 927 ft
Nearby Weather Stations

Elev 927 ft 41.65 °N, 89.23 °W | Updated 8 seconds ago

Partly Cloudy
Partly Cloudy
66.1 °F
Feels Like 66.1 °F
N
0.5
Wind Variable Wind from ENE
Gusts 2.3 mph

Today
High -- | Low -- °F
--% Chance of Precip.
Yesterday
High -- | Low -- °F
Precip. -- in
6:17 AM 7:37 PM
Waxing Crescent, 6% visible
Pressure 30.12 in
Visibility 10.0 miles
Clouds Clear
Dew Point 64 °F
Humidity 94%
Rainfall 0.00 in
Snow Depth Not available.
UV 0 out of 12
Pollen 9.80 out of 12
Air Quality Not available.
Flu Activity Not available.
METAR KVYS 280315Z AUTO 09005KT 10SM CLR 21/19 A3012 RMK AO2 T02100185

More Conditions Fewer Conditions

Pressure 30.12 in
Visibility 10.0 miles
Clouds Clear
Dew Point 64 °F
Humidity 94%
Rainfall 0.00 in
Snow Depth Not available.
UV 0 out of 12
Pollen 9.80 out of 12
Air Quality Not available.
Flu Activity Not available.
METAR KVYS 280315Z AUTO 09005KT 10SM CLR 21/19 A3012 RMK AO2 T02100185

More Conditions Fewer Conditions

10-Day Weather Forecast

Almanac

Astronomy

Aug. 27, 2014 Rise Set
Actual Time 6:17 AM CDT 7:37 PM CDT
Civil Twilight 5:48 AM CDT 8:06 PM CDT
Nautical Twilight 5:13 AM CDT 8:40 PM CDT
Astronomical Twilight 4:37 AM CDT 9:17 PM CDT
Moon 8:15 AM CDT (8/27) 8:27 PM CDT (8/27)
Length of Visible Light 14h 17m
Length of Day
13h 20m
Tomorrow will be 2m 37s shorter.
Waxing Crescent, 6% of the Moon is Illuminated
Today
Waxing Crescent
Sep 2
First Quarter
Sep 8
Full
Sep 15
Last Quarter
Sep 24
New

Today's Extremes

State Highs State Lows

Community

WunderPhotos

Upload Photos

1,747,891 photos uploaded!

Nearby

Snow Depth

Station Depth Elevation
No new snow has been reported.

Earthquake Activity

City Distance Mag. Time & Date
No recent earthquake activity has been reported nearby.
Minimum magnitude displayed is 2.5.

Coastal Water Temperatures

Place Temperature
No Stations Reporting

Nearby Weather Stations